Time;durP1;ratioP1;P1;durP2;ratioP2;P2;SDS_P1;SDS_P2;PMS_P1;PMS_P2;Temp;Humidity;BMP_temperature;BMP_pressure;BME280_temperature;BME280_humidity;BME280_pressure;Samples;Min_cycle;Max_cycle;Signal;HPM_P1;HPM_P2
2021/08/05 00:01:22;;;;;;;2.33;2.23;;;22.50;34.80;;;;;;5092044;28;20223;-63
2021/08/05 00:03:47;;;;;;;2.20;2.10;;;22.50;34.90;;;;;;5091963;28;20586;-63
2021/08/05 00:06:13;;;;;;;2.53;2.33;;;22.50;34.90;;;;;;5091679;28;20182;-63
2021/08/05 00:08:39;;;;;;;2.50;2.30;;;22.50;34.90;;;;;;5092340;28;20183;-64
2021/08/05 00:11:05;;;;;;;3.43;2.40;;;22.60;35.10;;;;;;5092455;28;20685;-64
2021/08/05 00:13:31;;;;;;;2.30;2.20;;;22.50;35.00;;;;;;5093465;28;20206;-64
2021/08/05 00:15:56;;;;;;;2.30;2.20;;;22.50;35.00;;;;;;5093116;28;20404;-62
2021/08/05 00:18:22;;;;;;;2.60;2.40;;;22.50;35.00;;;;;;5092543;28;20174;-62
2021/08/05 00:20:48;;;;;;;2.30;2.20;;;22.60;35.20;;;;;;5091824;28;20198;-63
2021/08/05 00:23:14;;;;;;;2.60;2.40;;;22.50;35.10;;;;;;5090502;28;20175;-63
2021/08/05 00:25:39;;;;;;;3.00;2.80;;;22.50;35.10;;;;;;5091550;28;20948;-63
2021/08/05 00:28:05;;;;;;;2.33;2.23;;;22.50;35.10;;;;;;5091271;28;20577;-62
2021/08/05 00:30:30;;;;;;;2.73;2.53;;;22.50;35.10;;;;;;5091407;28;20198;-62
2021/08/05 00:32:56;;;;;;;3.10;2.80;;;22.50;35.10;;;;;;5091987;28;20580;-62
2021/08/05 00:35:21;;;;;;;2.40;2.30;;;22.50;35.00;;;;;;5091143;28;20516;-62
2021/08/05 00:37:47;;;;;;;2.57;2.40;;;22.50;35.00;;;;;;5091554;28;20171;-62
2021/08/05 00:40:12;;;;;;;3.43;2.37;;;22.50;35.00;;;;;;5091350;28;20550;-63
2021/08/05 00:42:38;;;;;;;3.23;3.03;;;22.50;35.00;;;;;;5091215;28;20218;-62
2021/08/05 00:45:04;;;;;;;2.70;2.50;;;22.50;35.10;;;;;;5091126;28;20193;-63
2021/08/05 00:47:30;;;;;;;2.67;2.40;;;22.50;35.10;;;;;;5090778;28;20210;-63
2021/08/05 00:49:56;;;;;;;3.00;2.80;;;22.50;35.10;;;;;;5090858;28;20436;-63
2021/08/05 00:52:23;;;;;;;2.60;2.40;;;22.50;35.10;;;;;;5091368;28;20193;-63
2021/08/05 00:54:48;;;;;;;2.73;2.20;;;22.50;35.10;;;;;;5090905;28;20964;-63
2021/08/05 00:57:14;;;;;;;2.63;2.53;;;22.50;35.10;;;;;;5091434;28;20527;-63
2021/08/05 00:59:39;;;;;;;2.70;2.50;;;22.50;35.20;;;;;;5090999;28;20562;-63
2021/08/05 01:02:11;;;;;;;2.33;2.23;;;22.50;35.20;;;;;;5090814;28;20217;-63
2021/08/05 01:04:37;;;;;;;2.73;2.53;;;22.50;35.20;;;;;;5090793;28;20661;-63
2021/08/05 01:07:14;;;;;;;2.73;2.53;;;22.50;35.20;;;;;;5091060;28;20405;-63
2021/08/05 01:10:07;;;;;;;2.13;2.03;;;22.50;35.20;;;;;;5091016;28;20428;-63
2021/08/05 01:12:43;;;;;;;2.33;2.23;;;22.50;35.20;;;;;;5091040;28;20812;-63
2021/08/05 01:15:22;;;;;;;2.27;2.17;;;22.50;35.20;;;;;;5090444;28;20500;-63
2021/08/05 01:17:52;;;;;;;2.40;2.20;;;22.50;35.20;;;;;;5090772;28;20488;-64
2021/08/05 01:20:21;;;;;;;2.30;2.07;;;22.40;35.10;;;;;;5090764;28;20930;-63
2021/08/05 01:23:17;;;;;;;2.90;2.70;;;22.40;35.20;;;;;;5090725;28;20446;-63
2021/08/05 01:26:05;;;;;;;2.10;2.00;;;22.40;35.20;;;;;;5090409;28;20405;-63
2021/08/05 01:28:33;;;;;;;2.37;2.20;;;22.40;35.10;;;;;;5090910;28;20405;-64
2021/08/05 01:31:02;;;;;;;2.67;2.47;;;22.40;35.10;;;;;;5090456;28;21041;-63
2021/08/05 01:33:27;;;;;;;2.20;2.10;;;22.40;35.20;;;;;;5090557;28;20472;-63
2021/08/05 01:35:53;;;;;;;2.63;2.43;;;22.40;35.10;;;;;;5090501;28;20507;-63
2021/08/05 01:38:20;;;;;;;2.40;2.30;;;22.40;35.20;;;;;;5090752;28;20231;-63
2021/08/05 01:40:48;;;;;;;2.70;2.53;;;22.50;35.20;;;;;;5090390;28;20485;-63
2021/08/05 01:43:14;;;;;;;2.40;2.30;;;22.40;35.10;;;;;;5090405;28;20412;-63
2021/08/05 01:45:40;;;;;;;2.50;2.40;;;22.50;35.20;;;;;;5090032;28;20746;-63
2021/08/05 01:48:09;;;;;;;2.60;2.40;;;22.50;35.30;;;;;;5090322;28;20432;-63
2021/08/05 01:50:35;;;;;;;2.30;2.20;;;22.40;35.20;;;;;;5090357;28;20794;-62
2021/08/05 01:53:01;;;;;;;2.50;2.40;;;22.40;35.20;;;;;;5090468;28;20460;-63
2021/08/05 01:55:27;;;;;;;3.10;2.90;;;22.40;35.10;;;;;;5090125;28;20470;-63
2021/08/05 01:57:57;;;;;;;2.70;2.50;;;22.40;35.10;;;;;;5090227;28;20413;-63
2021/08/05 02:00:23;;;;;;;3.03;2.83;;;22.40;35.20;;;;;;5088892;28;20214;-63
2021/08/05 02:02:53;;;;;;;2.90;2.70;;;22.40;35.10;;;;;;5090060;28;20455;-63
2021/08/05 02:05:23;;;;;;;2.90;2.70;;;22.40;35.10;;;;;;5090113;28;20420;-63
2021/08/05 02:07:55;;;;;;;2.73;2.53;;;22.40;35.10;;;;;;5090534;28;20408;-63
2021/08/05 02:10:26;;;;;;;2.30;2.20;;;22.40;35.20;;;;;;5090248;28;20432;-63
2021/08/05 02:13:06;;;;;;;4.00;2.20;;;22.40;35.10;;;;;;5090018;28;20814;-63
2021/08/05 02:15:34;;;;;;;2.40;2.30;;;22.40;35.20;;;;;;5090015;28;20405;-63
2021/08/05 02:18:00;;;;;;;2.40;2.23;;;22.40;35.20;;;;;;5090198;28;20518;-63
2021/08/05 02:20:26;;;;;;;2.93;2.00;;;22.40;35.20;;;;;;5090368;28;21014;-63
2021/08/05 02:22:52;;;;;;;2.83;2.63;;;22.40;35.20;;;;;;5090590;28;20171;-63
2021/08/05 02:25:18;;;;;;;2.57;2.47;;;22.40;35.20;;;;;;5089770;28;20424;-63
2021/08/05 02:27:45;;;;;;;2.53;2.43;;;22.40;35.20;;;;;;5090091;28;20417;-63
2021/08/05 02:30:11;;;;;;;2.57;2.40;;;22.40;35.20;;;;;;5088976;28;20443;-63
2021/08/05 02:32:39;;;;;;;2.10;2.00;;;22.40;35.20;;;;;;5089847;28;20474;-63
2021/08/05 02:35:07;;;;;;;2.70;2.57;;;22.40;35.20;;;;;;5089692;28;20949;-63
2021/08/05 02:37:33;;;;;;;2.20;2.10;;;22.40;35.20;;;;;;5089736;28;20405;-63
2021/08/05 02:39:59;;;;;;;2.77;2.57;;;22.40;35.20;;;;;;5089858;28;20476;-62
2021/08/05 02:42:25;;;;;;;2.70;2.60;;;22.40;35.30;;;;;;5089728;28;20409;-63
2021/08/05 02:44:51;;;;;;;2.17;2.07;;;22.40;35.20;;;;;;5089987;28;20201;-63
2021/08/05 02:47:18;;;;;;;2.10;2.00;;;22.40;35.30;;;;;;5088467;28;20186;-63
2021/08/05 02:49:45;;;;;;;5.70;3.07;;;22.40;35.30;;;;;;5089990;28;20772;-63
2021/08/05 02:52:10;;;;;;;2.57;2.47;;;22.40;35.30;;;;;;5093316;28;20523;-62
2021/08/05 02:54:36;;;;;;;2.30;2.20;;;22.40;35.30;;;;;;5093240;28;21001;-63
2021/08/05 02:57:02;;;;;;;2.33;2.23;;;22.40;35.30;;;;;;5093426;28;20166;-64
2021/08/05 02:59:28;;;;;;;3.00;2.80;;;22.40;35.40;;;;;;5093335;28;20201;-62
2021/08/05 03:01:55;;;;;;;2.90;2.70;;;22.40;35.40;;;;;;5093443;28;20725;-62
2021/08/05 03:04:21;;;;;;;2.30;2.20;;;22.40;35.40;;;;;;5093154;28;20469;-62
2021/08/05 03:06:47;;;;;;;2.37;2.27;;;22.40;35.40;;;;;;5092885;28;20827;-62
2021/08/05 03:09:14;;;;;;;2.90;2.70;;;22.30;35.30;;;;;;5093104;28;20187;-63
2021/08/05 03:11:39;;;;;;;2.57;2.37;;;22.40;35.40;;;;;;5092988;28;20403;-62
2021/08/05 03:14:06;;;;;;;2.60;2.43;;;22.40;35.40;;;;;;5093264;28;20400;-60
2021/08/05 03:16:31;;;;;;;3.30;1.83;;;22.40;35.40;;;;;;5093123;28;20171;-63
2021/08/05 03:18:57;;;;;;;3.27;3.07;;;22.30;35.30;;;;;;5092831;28;20802;-63
2021/08/05 03:21:23;;;;;;;2.67;2.57;;;22.40;35.50;;;;;;5092844;28;20178;-63
2021/08/05 03:23:48;;;;;;;3.20;3.00;;;22.30;35.30;;;;;;5092709;28;20653;-63
2021/08/05 03:26:14;;;;;;;2.77;2.57;;;22.30;35.40;;;;;;5092634;28;20179;-63
2021/08/05 03:28:39;;;;;;;2.30;2.20;;;22.30;35.40;;;;;;5092954;28;20524;-62
2021/08/05 03:31:05;;;;;;;2.77;2.57;;;22.30;35.30;;;;;;5092782;28;20220;-63
2021/08/05 03:33:31;;;;;;;2.40;2.30;;;22.30;35.40;;;;;;5092560;28;20228;-62
2021/08/05 03:35:56;;;;;;;2.43;2.33;;;22.40;35.40;;;;;;5092430;28;20189;-63
2021/08/05 03:38:22;;;;;;;2.60;2.50;;;22.30;35.30;;;;;;5092490;28;20198;-63
2021/08/05 03:40:48;;;;;;;2.57;2.37;;;22.40;35.40;;;;;;5092771;28;20197;-63
2021/08/05 03:43:13;;;;;;;2.40;2.30;;;22.30;35.40;;;;;;5092543;28;20212;-63
2021/08/05 03:45:39;;;;;;;2.93;2.73;;;22.30;35.40;;;;;;5092270;28;20607;-63
2021/08/05 03:48:05;;;;;;;2.60;2.33;;;22.30;35.40;;;;;;5092264;28;20194;-63
2021/08/05 03:50:30;;;;;;;3.57;2.67;;;22.30;35.40;;;;;;5090940;28;20199;-63
2021/08/05 03:52:56;;;;;;;2.57;2.40;;;22.30;35.40;;;;;;5092187;28;20285;-62
2021/08/05 03:55:21;;;;;;;2.80;2.60;;;22.30;35.50;;;;;;5092059;28;20166;-63
2021/08/05 03:57:47;;;;;;;2.77;2.67;;;22.30;35.40;;;;;;5092150;28;20253;-63
2021/08/05 04:00:16;;;;;;;3.10;2.90;;;22.30;35.50;;;;;;5090886;28;20195;-63
2021/08/05 04:02:42;;;;;;;2.63;2.43;;;22.30;35.40;;;;;;5090806;28;20175;-63
2021/08/05 04:05:09;;;;;;;3.03;2.83;;;22.30;35.40;;;;;;5090567;28;20417;-61
2021/08/05 04:07:34;;;;;;;3.00;2.80;;;22.30;35.40;;;;;;5091937;28;20171;-62
2021/08/05 04:10:00;;;;;;;2.47;2.27;;;22.30;35.50;;;;;;5092087;28;20435;-62
2021/08/05 04:12:26;;;;;;;2.60;2.50;;;22.30;35.60;;;;;;5091829;28;20578;-62
2021/08/05 04:14:51;;;;;;;3.83;2.77;;;22.30;35.60;;;;;;5091542;28;20263;-62
2021/08/05 04:17:17;;;;;;;2.60;2.27;;;22.30;35.60;;;;;;5087903;28;20177;-65
2021/08/05 04:19:42;;;;;;;3.20;3.00;;;22.30;35.70;;;;;;5091769;28;20195;-65
2021/08/05 04:22:08;;;;;;;2.90;2.70;;;22.30;35.70;;;;;;5091631;28;20183;-66
2021/08/05 04:24:33;;;;;;;3.30;2.90;;;22.30;35.70;;;;;;5091576;28;20271;-65
2021/08/05 04:26:59;;;;;;;2.50;2.30;;;22.30;35.80;;;;;;5092266;28;20216;-66
2021/08/05 04:29:25;;;;;;;3.73;2.63;;;22.30;35.80;;;;;;5091271;28;20597;-64
2021/08/05 04:31:50;;;;;;;8.07;2.73;;;22.30;35.80;;;;;;5091300;28;20412;-63
2021/08/05 04:34:16;;;;;;;2.53;2.33;;;22.30;35.90;;;;;;5091210;28;20361;-63
2021/08/05 04:36:42;;;;;;;2.87;2.67;;;22.40;35.90;;;;;;5091681;28;20202;-63
2021/08/05 04:39:07;;;;;;;2.57;2.40;;;22.30;35.90;;;;;;5091556;28;20179;-65
2021/08/05 04:41:33;;;;;;;5.37;2.87;;;22.30;35.90;;;;;;5092862;28;20175;-66
2021/08/05 04:43:59;;;;;;;2.70;2.50;;;22.30;35.90;;;;;;5092832;28;20224;-66
2021/08/05 04:46:26;;;;;;;3.77;3.23;;;22.30;35.90;;;;;;5077030;28;20396;-66
2021/08/05 04:48:52;;;;;;;3.10;2.90;;;22.30;35.90;;;;;;5071124;28;20433;-65
2021/08/05 04:51:18;;;;;;;2.90;2.60;;;22.40;36.60;;;;;;5070548;28;20424;-65
2021/08/05 04:53:43;;;;;;;3.93;2.60;;;22.40;35.90;;;;;;5069932;28;20468;-65
2021/08/05 04:56:09;;;;;;;3.40;2.57;;;22.40;35.90;;;;;;5070623;28;20779;-65
2021/08/05 04:58:34;;;;;;;2.40;2.30;;;22.40;35.90;;;;;;5071010;28;20509;-65
2021/08/05 05:01:00;;;;;;;3.10;2.73;;;22.40;35.90;;;;;;5072125;28;20210;-65
2021/08/05 05:03:26;;;;;;;3.80;3.50;;;22.40;35.90;;;;;;5072250;28;20194;-65
2021/08/05 05:05:51;;;;;;;2.90;2.70;;;22.40;35.90;;;;;;5088537;28;20617;-65
2021/08/05 05:08:20;;;;;;;3.00;2.80;;;22.40;35.90;;;;;;5091503;28;20174;-64
2021/08/05 05:10:47;;;;;;;4.50;3.00;;;22.40;36.00;;;;;;5091733;28;20896;-66
2021/08/05 05:13:13;;;;;;;3.07;2.77;;;22.40;36.00;;;;;;5091555;28;20456;-64
2021/08/05 05:15:40;;;;;;;4.00;2.90;;;22.40;35.90;;;;;;5091663;28;20887;-63
2021/08/05 05:18:06;;;;;;;3.00;2.73;;;22.40;35.90;;;;;;5091067;28;20432;-63
2021/08/05 05:20:32;;;;;;;3.50;3.20;;;22.40;36.00;;;;;;5091820;28;20806;-63
2021/08/05 05:26:19;;;;;;;2.90;2.70;;;22.40;35.90;;;;;;5091536;28;20429;-65
2021/08/05 05:28:45;;;;;;;2.90;2.70;;;22.50;36.00;;;;;;5091382;28;20420;-64
2021/08/05 05:35:16;;;;;;;2.60;2.40;;;22.40;35.90;;;;;;5091890;28;20275;-66
2021/08/05 05:37:44;;;;;;;4.40;2.87;;;22.50;36.00;;;;;;5091816;28;20454;-64
2021/08/05 05:40:11;;;;;;;3.17;2.97;;;22.50;36.00;;;;;;5091871;28;20740;-64
2021/08/05 05:42:37;;;;;;;6.77;3.10;;;22.50;36.00;;;;;;5072575;28;20416;-64
2021/08/05 05:45:04;;;;;;;4.37;3.00;;;22.50;36.00;;;;;;5090921;28;20409;-64
2021/08/05 05:47:29;;;;;;;3.37;3.03;;;22.50;36.00;;;;;;5090541;28;20870;-65
2021/08/05 05:49:55;;;;;;;3.30;3.10;;;22.50;36.10;;;;;;5091209;28;20500;-65
2021/08/05 05:52:21;;;;;;;2.97;2.67;;;22.50;36.20;;;;;;5091712;28;20194;-64
2021/08/05 05:54:47;;;;;;;8.23;3.20;;;22.50;36.20;;;;;;5090610;28;20231;-65
2021/08/05 05:57:12;;;;;;;2.77;2.57;;;22.50;36.40;;;;;;5091147;28;20401;-66
2021/08/05 05:59:40;;;;;;;3.30;2.80;;;22.50;36.50;;;;;;5090807;28;20198;-65
2021/08/05 06:02:06;;;;;;;5.00;3.40;;;22.50;36.50;;;;;;5090884;28;20167;-64
2021/08/05 06:04:31;;;;;;;3.00;2.63;;;22.50;36.40;;;;;;5090503;28;20413;-64
2021/08/05 06:06:57;;;;;;;6.83;3.20;;;22.50;36.30;;;;;;5091367;28;20905;-64
2021/08/05 06:09:22;;;;;;;4.10;3.30;;;22.50;36.50;;;;;;5091592;28;20681;-66
2021/08/05 06:11:48;;;;;;;4.90;3.00;;;22.50;36.30;;;;;;5091673;28;20599;-66
2021/08/05 06:14:13;;;;;;;5.60;2.70;;;22.50;36.20;;;;;;5091744;28;20173;-66
2021/08/05 06:16:39;;;;;;;5.30;3.33;;;22.50;36.20;;;;;;5086319;28;20175;-65
2021/08/05 06:19:04;;;;;;;3.60;2.90;;;22.50;36.20;;;;;;5089887;28;20174;-65
2021/08/05 06:21:30;;;;;;;7.90;3.57;;;22.60;36.40;;;;;;5089942;28;20174;-64
2021/08/05 06:23:56;;;;;;;7.60;3.70;;;22.60;36.20;;;;;;5089783;28;20210;-64
2021/08/05 06:26:25;;;;;;;4.83;3.10;;;22.60;36.20;;;;;;5092688;28;20408;-65
2021/08/05 06:28:51;;;;;;;5.10;3.90;;;22.60;36.20;;;;;;5093585;28;20174;-65
2021/08/05 06:31:18;;;;;;;3.90;3.50;;;22.60;36.20;;;;;;5093183;28;20432;-65
2021/08/05 06:33:44;;;;;;;9.70;4.30;;;22.70;36.30;;;;;;5092685;28;20216;-66
2021/08/05 06:36:10;;;;;;;7.90;4.13;;;22.60;36.10;;;;;;5091740;28;20401;-66
2021/08/05 06:38:36;;;;;;;7.30;4.70;;;22.70;36.90;;;;;;5092904;28;20973;-65
2021/08/05 06:41:01;;;;;;;11.70;5.03;;;22.70;36.20;;;;;;5093226;28;20430;-65
2021/08/05 06:43:27;;;;;;;7.50;4.20;;;22.70;36.20;;;;;;5093332;28;20212;-64
2021/08/05 06:45:52;;;;;;;7.97;4.10;;;22.70;36.90;;;;;;5092811;28;20206;-65
2021/08/05 06:48:18;;;;;;;4.80;4.37;;;22.70;36.20;;;;;;5093124;28;20380;-66
2021/08/05 06:50:43;;;;;;;7.37;4.10;;;22.70;36.20;;;;;;5093176;28;20497;-66
2021/08/05 06:53:09;;;;;;;4.63;3.60;;;22.70;36.10;;;;;;5092983;28;20209;-66
2021/08/05 06:55:35;;;;;;;5.10;4.23;;;22.70;36.10;;;;;;5092944;28;20231;-66
2021/08/05 06:58:00;;;;;;;8.30;4.17;;;22.70;36.00;;;;;;5092911;28;20190;-66
2021/08/05 07:00:26;;;;;;;6.13;4.40;;;22.70;36.00;;;;;;5093955;28;20194;-66
2021/08/05 07:02:51;;;;;;;4.00;3.70;;;22.70;36.00;;;;;;5094698;28;20170;-67
2021/08/05 07:05:17;;;;;;;5.33;4.40;;;22.70;36.10;;;;;;5094803;28;20186;-66
2021/08/05 07:07:43;;;;;;;4.97;3.60;;;22.70;36.00;;;;;;5094870;28;20545;-66
2021/08/05 07:10:09;;;;;;;5.87;4.50;;;22.70;36.10;;;;;;5094658;28;20436;-66
2021/08/05 07:12:35;;;;;;;3.50;3.20;;;22.70;36.10;;;;;;5094492;28;20656;-66
2021/08/05 07:15:00;;;;;;;4.77;3.80;;;22.70;36.00;;;;;;5094306;28;20497;-67
2021/08/05 07:17:26;;;;;;;8.53;3.60;;;22.70;36.00;;;;;;5094476;28;20167;-66
2021/08/05 07:19:52;;;;;;;3.33;3.03;;;22.70;35.90;;;;;;5094424;28;20191;-65
2021/08/05 07:22:17;;;;;;;3.57;3.33;;;22.70;35.90;;;;;;5094447;28;20256;-66
2021/08/05 07:24:43;;;;;;;5.17;3.40;;;22.70;35.80;;;;;;5094220;28;20179;-65
2021/08/05 07:27:09;;;;;;;3.83;3.57;;;22.70;35.80;;;;;;5094247;28;20185;-65
2021/08/05 07:29:35;;;;;;;6.20;3.53;;;22.70;35.90;;;;;;5094024;28;20669;-66
2021/08/05 07:32:04;;;;;;;4.00;3.43;;;22.70;35.80;;;;;;5094269;28;20185;-66
2021/08/05 07:34:30;;;;;;;3.27;3.00;;;22.70;35.80;;;;;;5094168;28;20469;-66
2021/08/05 07:36:56;;;;;;;3.20;2.90;;;22.70;35.70;;;;;;5093880;28;20413;-67
2021/08/05 07:39:21;;;;;;;5.50;3.50;;;22.80;35.70;;;;;;5094169;28;20421;-66
2021/08/05 07:41:47;;;;;;;3.50;3.20;;;22.70;35.70;;;;;;5094006;28;20227;-67
2021/08/05 07:44:13;;;;;;;3.20;3.00;;;22.70;35.60;;;;;;5093905;28;20549;-67
2021/08/05 07:46:39;;;;;;;3.83;3.53;;;22.70;35.50;;;;;;5093534;28;20185;-67
2021/08/05 07:49:04;;;;;;;3.77;3.20;;;22.70;35.50;;;;;;5089978;28;20178;-67
2021/08/05 07:51:30;;;;;;;7.70;3.50;;;22.70;35.40;;;;;;5093313;28;21016;-65
2021/08/05 07:53:56;;;;;;;4.50;3.60;;;22.80;35.60;;;;;;5094099;28;20217;-67
2021/08/05 07:56:21;;;;;;;4.47;4.07;;;22.70;35.40;;;;;;5093305;28;20769;-66
2021/08/05 07:58:50;;;;;;;4.80;2.93;;;22.70;35.40;;;;;;5093109;28;20539;-66
2021/08/05 08:01:16;;;;;;;3.43;3.10;;;22.80;35.40;;;;;;5093982;28;20281;-67
2021/08/05 08:03:42;;;;;;;3.77;3.37;;;22.80;35.30;;;;;;5093500;28;20409;-66
2021/08/05 08:06:07;;;;;;;3.70;3.50;;;22.80;35.30;;;;;;5093331;28;20416;-67
2021/08/05 08:08:33;;;;;;;3.00;2.80;;;22.80;35.30;;;;;;5093440;28;20575;-66
2021/08/05 08:10:58;;;;;;;3.27;2.97;;;22.80;35.30;;;;;;5093354;28;20560;-66
2021/08/05 08:13:25;;;;;;;3.43;3.13;;;22.80;35.20;;;;;;5092816;28;20546;-65
2021/08/05 08:15:50;;;;;;;3.40;3.10;;;22.80;35.20;;;;;;5093155;28;20167;-66
2021/08/05 08:18:16;;;;;;;3.20;2.90;;;22.80;35.90;;;;;;5093222;28;20583;-65
2021/08/05 08:20:42;;;;;;;3.13;2.93;;;22.80;35.20;;;;;;5092919;28;20290;-66
2021/08/05 08:23:08;;;;;;;3.60;3.30;;;22.80;35.20;;;;;;5093036;28;20413;-66
2021/08/05 08:25:33;;;;;;;3.40;3.10;;;22.80;35.20;;;;;;5092883;28;20405;-65
2021/08/05 08:27:59;;;;;;;4.27;3.37;;;22.80;35.20;;;;;;5092748;28;20181;-64
2021/08/05 08:30:25;;;;;;;7.73;3.27;;;22.80;35.20;;;;;;5093250;28;20222;-65
2021/08/05 08:32:51;;;;;;;3.47;3.00;;;22.80;35.20;;;;;;5093081;28;20641;-65
2021/08/05 08:41:57;;;;;;;5.53;4.37;;;22.80;35.10;;;;;;5798643;22;20498;-69
2021/08/05 08:44:22;;;;;;;4.90;3.63;;;22.80;35.20;;;;;;5043065;28;20531;-68
2021/08/05 08:46:48;;;;;;;3.37;3.17;;;22.80;35.20;;;;;;5051980;28;20529;-67
2021/08/05 08:49:15;;;;;;;4.30;4.00;;;22.80;35.20;;;;;;5063605;28;20834;-67
2021/08/05 08:51:45;;;;;;;3.73;3.40;;;22.80;35.20;;;;;;5052358;28;20231;-67
2021/08/05 08:54:11;;;;;;;3.20;3.00;;;22.80;35.20;;;;;;5051239;28;20875;-67
2021/08/05 08:56:39;;;;;;;5.60;3.83;;;22.80;35.20;;;;;;5051275;28;20442;-67
2021/08/05 08:59:05;;;;;;;3.30;3.10;;;22.80;35.20;;;;;;5052292;28;20215;-70
2021/08/05 09:01:32;;;;;;;3.43;3.23;;;22.80;35.20;;;;;;5050939;28;20437;-69
2021/08/05 09:03:57;;;;;;;4.50;4.07;;;22.80;35.20;;;;;;5051610;28;20441;-68
2021/08/05 09:06:24;;;;;;;4.40;3.23;;;22.80;35.20;;;;;;5051786;28;20924;-67
2021/08/05 09:08:49;;;;;;;3.30;3.00;;;22.80;35.20;;;;;;5052513;28;20230;-69
2021/08/05 09:11:16;;;;;;;4.53;3.10;;;22.80;35.10;;;;;;5051884;28;20517;-68
2021/08/05 09:13:41;;;;;;;3.03;2.83;;;22.90;35.10;;;;;;5052401;28;20724;-68
2021/08/05 09:16:42;;;;;;;3.37;3.17;;;22.90;35.00;;;;;;5052372;28;20560;-69
2021/08/05 09:19:16;;;;;;;3.40;3.10;;;22.90;35.00;;;;;;4990546;28;20308;-69
2021/08/05 09:22:00;;;;;;;3.43;3.23;;;23.00;35.00;;;;;;5061626;28;20444;-67
2021/08/05 09:24:28;;;;;;;3.10;2.90;;;23.00;34.90;;;;;;5072310;28;20771;-68
2021/08/05 09:26:57;;;;;;;3.17;2.97;;;23.10;34.90;;;;;;5053292;28;20410;-68
2021/08/05 09:29:24;;;;;;;9.13;3.53;;;23.10;34.90;;;;;;5050913;28;20414;-69
2021/08/05 09:31:50;;;;;;;3.47;3.27;;;23.10;34.80;;;;;;5049477;28;20426;-67
2021/08/05 09:34:17;;;;;;;2.70;2.50;;;23.10;34.70;;;;;;5062566;28;20461;-67
2021/08/05 09:36:44;;;;;;;3.00;2.80;;;23.20;34.70;;;;;;5071560;28;20213;-68
2021/08/05 09:39:27;;;;;;;4.90;3.50;;;23.20;34.60;;;;;;5071710;28;20917;-69
2021/08/05 09:42:05;;;;;;;2.80;2.57;;;23.20;34.50;;;;;;5055185;28;20518;-68
2021/08/05 09:44:52;;;;;;;3.50;3.30;;;23.20;34.50;;;;;;5051562;28;20938;-69
2021/08/05 09:47:22;;;;;;;3.03;2.87;;;23.30;34.50;;;;;;5055850;28;20918;-68
2021/08/05 09:49:47;;;;;;;3.30;3.10;;;23.30;34.50;;;;;;5070803;28;20437;-67
2021/08/05 09:52:15;;;;;;;3.10;2.70;;;23.30;34.50;;;;;;5070727;28;20546;-67
2021/08/05 09:54:43;;;;;;;4.70;3.50;;;23.30;34.50;;;;;;5070533;28;20636;-68
2021/08/05 09:57:12;;;;;;;2.60;2.50;;;23.30;34.40;;;;;;5070812;28;20410;-69
2021/08/05 09:59:56;;;;;;;3.10;2.80;;;23.30;34.30;;;;;;5071259;28;20410;-69
2021/08/05 10:02:22;;;;;;;4.00;3.57;;;23.30;34.20;;;;;;5075107;28;20440;-69
2021/08/05 10:04:48;;;;;;;2.77;2.50;;;23.40;34.30;;;;;;5075383;28;20413;-68
2021/08/05 10:07:15;;;;;;;4.63;2.93;;;23.30;34.10;;;;;;5074615;28;20405;-68
2021/08/05 10:09:41;;;;;;;3.17;2.97;;;23.30;34.10;;;;;;5074068;28;20405;-69
2021/08/05 10:12:26;;;;;;;3.30;3.10;;;23.30;34.00;;;;;;5074447;28;20427;-71
2021/08/05 10:15:08;;;;;;;3.00;2.80;;;23.30;34.00;;;;;;5074077;28;20770;-68
2021/08/05 10:17:34;;;;;;;3.10;2.90;;;23.40;34.00;;;;;;5074084;28;20408;-70
2021/08/05 10:20:03;;;;;;;2.90;2.70;;;23.30;33.90;;;;;;5074206;28;20414;-69
2021/08/05 10:22:30;;;;;;;3.30;3.00;;;23.30;33.90;;;;;;5073818;28;20429;-70
2021/08/05 10:24:56;;;;;;;2.77;2.67;;;23.20;34.00;;;;;;5073501;28;20789;-67
2021/08/05 10:27:22;;;;;;;2.57;2.47;;;23.20;34.00;;;;;;5074331;28;20405;-72
2021/08/05 10:29:50;;;;;;;3.00;2.80;;;23.20;34.10;;;;;;5074825;28;20478;-70
2021/08/05 10:32:16;;;;;;;3.00;2.80;;;23.20;34.00;;;;;;5074325;28;20225;-72
2021/08/05 10:34:43;;;;;;;3.20;3.00;;;23.30;33.90;;;;;;5074189;28;20397;-70
2021/08/05 10:37:12;;;;;;;2.90;2.70;;;23.30;34.00;;;;;;5074060;28;20413;-71
2021/08/05 10:39:39;;;;;;;3.30;2.97;;;23.30;33.90;;;;;;5074214;28;20459;-71
2021/08/05 10:42:08;;;;;;;3.40;3.10;;;23.30;33.80;;;;;;5074109;28;20983;-71
2021/08/05 10:44:36;;;;;;;3.00;2.80;;;23.40;33.80;;;;;;5074240;28;20449;-71
2021/08/05 10:47:05;;;;;;;2.70;2.60;;;23.40;33.70;;;;;;5074254;28;20775;-70
2021/08/05 10:49:33;;;;;;;3.33;2.43;;;23.40;33.70;;;;;;5074721;28;20501;-71
2021/08/05 10:51:59;;;;;;;2.70;2.60;;;23.40;33.60;;;;;;5074235;28;20425;-71
2021/08/05 10:55:04;;;;;;;2.47;2.27;;;23.40;33.50;;;;;;5074661;28;20463;-70
2021/08/05 10:57:30;;;;;;;2.80;2.60;;;23.30;33.40;;;;;;4992829;28;20182;-71
2021/08/05 11:00:14;;;;;;;3.13;2.93;;;23.30;33.50;;;;;;4992294;28;20491;-70
2021/08/05 11:02:45;;;;;;;2.50;2.40;;;23.30;33.70;;;;;;5041607;28;20448;-70
2021/08/05 11:05:31;;;;;;;11.43;2.53;;;23.30;33.60;;;;;;5074481;28;20405;-71
2021/08/05 11:08:19;;;;;;;2.07;1.97;;;23.40;33.60;;;;;;5070523;28;20772;-71
2021/08/05 11:10:46;;;;;;;2.47;2.23;;;23.40;33.40;;;;;;5062338;28;20450;-72
2021/08/05 11:13:12;;;;;;;2.60;2.43;;;23.40;33.40;;;;;;5073327;28;20465;-71
2021/08/05 11:15:38;;;;;;;2.20;2.10;;;23.40;33.20;;;;;;5073116;28;20402;-70
2021/08/05 11:18:09;;;;;;;2.33;2.23;;;23.40;33.10;;;;;;5071302;28;20418;-71
2021/08/05 11:20:38;;;;;;;2.10;2.00;;;23.40;33.00;;;;;;5068391;28;20215;-71
2021/08/05 11:23:04;;;;;;;2.27;2.17;;;23.40;33.10;;;;;;5053869;28;20398;-71
2021/08/05 11:25:53;;;;;;;2.23;2.13;;;23.40;32.90;;;;;;5054135;28;20410;-72
2021/08/05 11:28:32;;;;;;;2.50;2.30;;;23.40;33.10;;;;;;5041807;28;20441;-68
2021/08/05 11:30:59;;;;;;;2.67;2.57;;;23.40;33.20;;;;;;5053721;28;20517;-69
2021/08/05 11:33:37;;;;;;;2.27;2.17;;;23.40;33.20;;;;;;5057702;28;20462;-68
2021/08/05 11:36:21;;;;;;;2.60;2.50;;;23.50;33.20;;;;;;5073108;28;20914;-68
2021/08/05 11:39:20;;;;;;;2.60;2.40;;;23.40;33.20;;;;;;5073535;28;20492;-69
2021/08/05 11:42:02;;;;;;;2.67;2.47;;;23.40;33.00;;;;;;5073567;28;20482;-69
2021/08/05 11:44:34;;;;;;;2.50;2.30;;;23.40;33.20;;;;;;5072436;28;20504;-68
2021/08/05 11:47:05;;;;;;;2.27;2.07;;;23.30;33.20;;;;;;5073751;28;20408;-68
2021/08/05 11:49:52;;;;;;;2.67;2.57;;;23.30;33.50;;;;;;5073711;28;20428;-69
2021/08/05 11:52:28;;;;;;;2.30;2.20;;;23.30;33.70;;;;;;5073240;28;20465;-65
2021/08/05 11:55:00;;;;;;;2.40;2.20;;;23.30;33.70;;;;;;5072958;28;20489;-66
2021/08/05 11:57:27;;;;;;;2.57;2.37;;;23.30;33.70;;;;;;5072343;28;20401;-65
2021/08/05 11:59:57;;;;;;;2.37;2.27;;;23.30;33.70;;;;;;5071869;28;20405;-65
2021/08/05 12:02:24;;;;;;;2.33;2.13;;;23.40;33.60;;;;;;5071538;28;20442;-64
2021/08/05 12:04:53;;;;;;;2.23;2.13;;;23.30;33.40;;;;;;5072044;28;20414;-64
2021/08/05 12:07:34;;;;;;;2.57;2.37;;;23.30;33.40;;;;;;5071798;28;20402;-67
2021/08/05 12:10:24;;;;;;;2.50;2.30;;;23.30;33.50;;;;;;5072561;28;20459;-67
2021/08/05 12:12:55;;;;;;;2.73;2.53;;;23.30;33.50;;;;;;5072247;28;20457;-66
2021/08/05 12:15:26;;;;;;;2.30;2.10;;;23.30;33.40;;;;;;5073011;28;20394;-66
2021/08/05 12:17:53;;;;;;;2.50;2.40;;;23.30;33.50;;;;;;5071884;28;20406;-66
2021/08/05 12:20:32;;;;;;;2.17;2.03;;;23.30;33.60;;;;;;5072225;28;20409;-67
2021/08/05 12:23:33;;;;;;;2.33;2.20;;;23.30;33.70;;;;;;5071773;28;20413;-66
2021/08/05 12:26:12;;;;;;;2.00;1.90;;;23.20;33.60;;;;;;5065943;28;20421;-66
2021/08/05 12:28:41;;;;;;;2.40;2.30;;;23.20;33.60;;;;;;5052687;28;20504;-66
2021/08/05 12:31:13;;;;;;;2.70;2.30;;;23.20;33.60;;;;;;5052397;28;20423;-64
2021/08/05 12:33:41;;;;;;;2.67;2.37;;;23.30;33.50;;;;;;5051319;28;20454;-68
2021/08/05 12:36:12;;;;;;;3.40;2.40;;;23.30;33.40;;;;;;5051855;28;20410;-69
2021/08/05 12:38:49;;;;;;;2.23;2.13;;;23.30;33.50;;;;;;5052050;28;21100;-68
2021/08/05 12:41:17;;;;;;;2.60;2.27;;;23.30;33.50;;;;;;5070552;28;20456;-67
2021/08/05 12:43:44;;;;;;;2.13;2.00;;;23.30;33.50;;;;;;5071332;28;20429;-67
2021/08/05 12:46:11;;;;;;;4.07;2.47;;;23.30;33.50;;;;;;5071137;28;20409;-64
2021/08/05 12:48:41;;;;;;;2.80;2.23;;;23.30;33.60;;;;;;5069860;28;20516;-69
2021/08/05 12:51:13;;;;;;;2.70;2.50;;;23.30;33.50;;;;;;5071345;28;20448;-69
2021/08/05 12:53:39;;;;;;;2.07;1.90;;;23.30;33.60;;;;;;5071040;28;20449;-68
2021/08/05 12:56:04;;;;;;;2.37;2.17;;;23.30;33.40;;;;;;5070740;28;20406;-67
2021/08/05 12:58:31;;;;;;;2.63;2.43;;;23.30;33.40;;;;;;5070578;28;20171;-64
2021/08/05 13:01:17;;;;;;;2.70;2.50;;;23.40;33.40;;;;;;5071423;28;20657;-68
2021/08/05 13:03:45;;;;;;;2.53;2.30;;;23.30;33.40;;;;;;5070875;28;20509;-68
2021/08/05 13:06:11;;;;;;;2.53;2.20;;;23.30;33.40;;;;;;5070607;28;20463;-68
2021/08/05 13:08:39;;;;;;;2.30;2.10;;;23.30;33.30;;;;;;5050662;28;20403;-67